createdAt,value
2023-03-05T00:00:39.250Z,8.46
2023-03-05T00:01:36.193Z,9.03
2023-03-05T00:02:34.162Z,7.57
2023-03-05T00:03:33.025Z,7.98
2023-03-05T00:04:29.919Z,7.89
2023-03-05T00:05:40.734Z,7.85
2023-03-05T00:06:43.906Z,8.23
2023-03-05T00:07:44.102Z,7.53
2023-03-05T00:08:40.992Z,8.71
2023-03-05T00:09:38.656Z,8.76
2023-03-05T00:10:35.586Z,6.93
2023-03-05T00:11:39.788Z,8.49
2023-03-05T00:12:39.884Z,8.46
2023-03-05T00:13:37.689Z,8.58
2023-03-05T00:14:40.621Z,8.69
2023-03-05T00:15:43.990Z,8.02
2023-03-05T00:16:41.266Z,7.87
2023-03-05T00:17:47.030Z,8.72
2023-03-05T00:18:44.912Z,8.76
2023-03-05T00:19:41.730Z,8.64
2023-03-05T00:20:38.668Z,7.74
2023-03-05T00:21:39.153Z,7.63
2023-03-05T00:22:37.049Z,7.63
2023-03-05T00:23:35.720Z,8.79
2023-03-05T00:24:32.527Z,8.62
2023-03-05T00:25:29.506Z,4.84
2023-03-05T00:26:43.821Z,8.27
2023-03-05T00:27:40.653Z,7.88
2023-03-05T00:28:45.026Z,8.75
2023-03-05T00:29:42.074Z,8.86
2023-03-05T00:30:39.027Z,8.53
2023-03-05T00:31:37.166Z,7.26
2023-03-05T00:32:34.190Z,8.53
2023-03-05T00:33:35.319Z,7.01
2023-03-05T00:34:32.086Z,8.40
2023-03-05T00:35:29.178Z,7.73
2023-03-05T00:36:26.327Z,8.62
2023-03-05T00:37:23.115Z,8.62
2023-03-05T00:38:23.627Z,8.04
2023-03-05T00:39:25.102Z,7.67
2023-03-05T00:40:22.156Z,8.68
2023-03-05T00:41:19.215Z,6.98
2023-03-05T00:42:16.068Z,8.05
2023-03-05T00:43:15.112Z,8.65
2023-03-05T00:44:14.467Z,8.24
2023-03-05T00:45:12.031Z,8.39
2023-03-05T00:46:09.027Z,8.70
2023-03-05T00:47:06.119Z,8.86
2023-03-05T00:48:06.224Z,6.99
2023-03-05T00:49:06.595Z,6.79
2023-03-05T00:50:06.553Z,7.90
2023-03-05T00:51:03.689Z,7.65
2023-03-05T00:52:03.894Z,8.27
2023-03-05T00:53:00.642Z,8.22
2023-03-05T00:54:00.247Z,8.45
2023-03-05T00:54:57.083Z,8.51
2023-03-05T00:55:53.831Z,8.39
2023-03-05T00:56:50.647Z,6.78
2023-03-05T00:57:47.801Z,8.59
2023-03-05T00:58:44.665Z,7.76
2023-03-05T00:59:41.497Z,8.37
2023-03-05T01:00:38.440Z,8.46
2023-03-05T01:01:35.373Z,8.67
2023-03-05T01:02:34.700Z,7.00
2023-03-05T01:03:34.110Z,8.52
2023-03-05T01:04:39.076Z,6.71
2023-03-05T01:05:35.985Z,7.87
2023-03-05T01:06:35.115Z,7.37
2023-03-05T01:07:31.941Z,8.26
2023-03-05T01:08:28.697Z,7.77
2023-03-05T01:09:25.674Z,8.31
2023-03-05T01:10:26.694Z,7.56
2023-03-05T01:11:23.546Z,8.39
2023-03-05T01:12:20.366Z,8.50
2023-03-05T01:13:17.257Z,8.25
2023-03-05T01:14:17.578Z,8.44
2023-03-05T01:15:16.938Z,8.24
2023-03-05T01:16:21.020Z,7.51
2023-03-05T01:17:17.882Z,8.49
2023-03-05T01:18:15.176Z,8.14
2023-03-05T01:19:15.604Z,8.18
2023-03-05T01:20:17.749Z,6.88
2023-03-05T01:21:17.459Z,7.87
2023-03-05T01:22:14.341Z,6.09
2023-03-05T01:23:12.395Z,7.45
2023-03-05T01:24:09.376Z,7.05
2023-03-05T01:25:09.441Z,8.38
2023-03-05T01:26:06.632Z,7.50
2023-03-05T01:27:03.620Z,8.38
2023-03-05T01:28:00.662Z,8.60
2023-03-05T01:28:57.635Z,8.31
2023-03-05T01:29:54.437Z,8.45
2023-03-05T01:30:51.344Z,7.83
2023-03-05T01:31:48.317Z,7.99
2023-03-05T01:32:45.259Z,8.40
2023-03-05T01:33:42.116Z,7.40
2023-03-05T01:34:39.307Z,8.40
2023-03-05T01:35:39.313Z,8.43
2023-03-05T01:36:38.597Z,6.59
2023-03-05T01:37:35.490Z,7.88
2023-03-05T01:38:33.497Z,8.35
2023-03-05T01:39:30.426Z,7.75
2023-03-05T01:40:30.155Z,8.55
2023-03-05T01:41:27.064Z,7.46
2023-03-05T01:42:23.958Z,7.50
2023-03-05T01:43:30.103Z,8.14
2023-03-05T01:44:34.441Z,6.46
2023-03-05T01:45:34.989Z,7.05
2023-03-05T01:46:36.070Z,8.35
2023-03-05T01:47:33.114Z,7.13
2023-03-05T01:48:30.657Z,7.98
2023-03-05T01:49:41.623Z,7.62
2023-03-05T01:50:38.477Z,8.48
2023-03-05T01:52:10.200Z,8.22
2023-03-05T01:53:07.747Z,7.25
2023-03-05T01:54:14.740Z,8.39
2023-03-05T01:55:20.105Z,8.39
2023-03-05T01:56:20.556Z,7.62
2023-03-05T01:57:21.901Z,8.36
2023-03-05T01:58:18.804Z,8.39
2023-03-05T01:59:18.912Z,7.33
2023-03-05T02:00:41.306Z,8.17
2023-03-05T02:01:51.328Z,7.41
2023-03-05T02:02:54.311Z,7.60
2023-03-05T02:03:51.825Z,7.44
2023-03-05T02:04:59.349Z,7.70
2023-03-05T02:05:56.143Z,8.09
2023-03-05T02:06:56.504Z,7.29
2023-03-05T02:08:00.157Z,7.01
2023-03-05T02:08:57.251Z,7.72
2023-03-05T02:09:54.134Z,6.85
2023-03-05T02:10:57.565Z,7.51
2023-03-05T02:11:55.293Z,5.88
2023-03-05T02:12:56.307Z,8.42
2023-03-05T02:13:56.730Z,8.37
2023-03-05T02:14:59.285Z,8.04
2023-03-05T02:15:59.328Z,8.19
2023-03-05T02:16:56.377Z,7.87
2023-03-05T02:17:55.905Z,8.31
2023-03-05T02:18:55.524Z,7.52
2023-03-05T02:19:56.285Z,8.45
2023-03-05T02:20:58.315Z,7.64
2023-03-05T02:21:58.063Z,7.76
2023-03-05T02:22:55.108Z,7.40
2023-03-05T02:23:55.634Z,8.14
2023-03-05T02:24:52.660Z,7.37
2023-03-05T02:25:53.579Z,7.46
2023-03-05T02:26:50.374Z,7.17
2023-03-05T02:28:15.004Z,8.15
2023-03-05T02:29:19.258Z,7.89
2023-03-05T02:30:16.126Z,8.09
2023-03-05T02:31:15.949Z,7.79
2023-03-05T02:32:14.003Z,8.16
2023-03-05T02:33:11.282Z,7.60
2023-03-05T02:34:08.416Z,8.05
2023-03-05T02:35:05.631Z,7.65
2023-03-05T02:36:02.602Z,5.31
2023-03-05T02:37:00.557Z,8.11
2023-03-05T02:37:57.486Z,8.02
2023-03-05T02:38:57.109Z,7.82
2023-03-05T02:39:53.925Z,7.75
2023-03-05T02:40:50.773Z,7.53
2023-03-05T02:41:47.609Z,8.30
2023-03-05T02:42:45.018Z,7.32
2023-03-05T02:43:42.019Z,7.92
2023-03-05T02:44:38.850Z,8.20
2023-03-05T02:45:36.222Z,6.64
2023-03-05T02:46:33.097Z,6.28
2023-03-05T02:47:31.459Z,7.82
2023-03-05T02:48:28.347Z,7.84
2023-03-05T02:49:25.314Z,7.60
2023-03-05T02:50:22.617Z,6.46
2023-03-05T02:51:22.540Z,7.33
2023-03-05T02:52:19.666Z,6.66
2023-03-05T02:53:16.505Z,7.74
2023-03-05T02:54:13.326Z,7.65
2023-03-05T02:55:10.602Z,7.43
2023-03-05T02:56:07.521Z,7.71
2023-03-05T02:57:04.344Z,7.67
2023-03-05T02:58:03.641Z,7.80
2023-03-05T02:59:00.469Z,7.81
2023-03-05T02:59:57.237Z,6.83
2023-03-05T03:00:54.204Z,7.16
2023-03-05T03:01:51.089Z,6.44
2023-03-05T03:02:50.795Z,7.88
2023-03-05T03:03:47.576Z,6.64
2023-03-05T03:04:47.951Z,6.22
2023-03-05T03:05:44.808Z,7.75
2023-03-05T03:06:41.649Z,6.22
2023-03-05T03:07:41.105Z,7.49
2023-03-05T03:08:37.974Z,7.48
2023-03-05T03:09:36.146Z,7.35
2023-03-05T03:10:33.931Z,7.56
2023-03-05T03:11:30.752Z,6.10
2023-03-05T03:12:27.559Z,7.33
2023-03-05T03:13:27.585Z,6.11
2023-03-05T03:14:24.458Z,6.19
2023-03-05T03:15:21.436Z,7.00
2023-03-05T03:16:18.395Z,7.48
2023-03-05T03:17:17.344Z,6.86
2023-03-05T03:18:14.219Z,6.95
2023-03-05T03:19:11.210Z,7.17
2023-03-05T03:20:13.956Z,7.13
2023-03-05T03:21:21.674Z,7.28
2023-03-05T03:22:18.506Z,7.39
2023-03-05T03:23:15.336Z,5.69
2023-03-05T03:24:12.110Z,7.62
2023-03-05T03:25:11.064Z,5.79
2023-03-05T03:26:07.821Z,6.26
2023-03-05T03:27:07.528Z,7.20
2023-03-05T03:28:05.851Z,4.91
2023-03-05T03:29:04.686Z,7.65
2023-03-05T03:30:04.757Z,7.51
2023-03-05T03:31:01.670Z,6.30
2023-03-05T03:31:58.976Z,6.48
2023-03-05T03:32:55.879Z,7.42
2023-03-05T03:33:52.786Z,6.52
2023-03-05T03:34:49.756Z,5.73
2023-03-05T03:35:47.068Z,6.00
2023-03-05T03:36:45.722Z,7.15
2023-03-05T03:37:42.618Z,7.69
2023-03-05T03:38:39.406Z,7.43
2023-03-05T03:39:36.390Z,7.09
2023-03-05T03:40:33.217Z,7.44
2023-03-05T03:41:29.990Z,7.37
2023-03-05T03:42:26.920Z,5.57
2023-03-05T03:43:23.822Z,7.10
2023-03-05T03:44:21.916Z,6.02
2023-03-05T03:45:19.095Z,6.49
2023-03-05T03:46:16.040Z,7.41
2023-03-05T03:47:12.986Z,7.31
2023-03-05T03:48:10.728Z,7.33
2023-03-05T03:49:10.779Z,5.95
2023-03-05T03:50:09.305Z,7.41
2023-03-05T03:51:08.097Z,5.38
2023-03-05T03:52:05.864Z,6.77
2023-03-05T03:53:07.470Z,6.48
2023-03-05T03:54:04.538Z,6.98
2023-03-05T03:55:02.207Z,7.47
2023-03-05T03:55:59.953Z,5.94
2023-03-05T03:56:59.829Z,5.32
2023-03-05T03:57:59.334Z,7.14
2023-03-05T03:59:05.125Z,6.15
2023-03-05T04:00:02.215Z,5.66
2023-03-05T04:01:01.984Z,7.28
2023-03-05T04:02:01.978Z,5.73
2023-03-05T04:03:03.759Z,6.52
2023-03-05T04:04:00.936Z,6.24
2023-03-05T04:04:57.852Z,6.72
2023-03-05T04:05:54.614Z,7.31
2023-03-05T04:06:58.611Z,7.26
2023-03-05T04:07:55.576Z,6.26
2023-03-05T04:08:52.311Z,7.18
2023-03-05T04:09:49.681Z,7.28
2023-03-05T04:10:49.233Z,6.52
2023-03-05T04:11:46.105Z,4.98
2023-03-05T04:12:43.700Z,5.71
2023-03-05T04:13:43.400Z,7.14
2023-03-05T04:14:40.293Z,6.01
2023-03-05T04:15:40.122Z,6.90
2023-03-05T04:16:36.988Z,7.33
2023-03-05T04:17:33.874Z,7.00
2023-03-05T04:18:32.522Z,7.03
2023-03-05T04:19:30.776Z,7.07
2023-03-05T04:20:27.583Z,5.90
2023-03-05T04:21:27.491Z,6.50
2023-03-05T04:22:24.425Z,7.26
2023-03-05T04:23:21.251Z,7.38
2023-03-05T04:24:18.161Z,7.35
2023-03-05T04:25:18.351Z,6.27
2023-03-05T04:26:15.203Z,7.15
2023-03-05T04:27:12.094Z,4.96
2023-03-05T04:28:08.924Z,7.22
2023-03-05T04:29:11.062Z,6.37
2023-03-05T04:30:14.722Z,7.06
2023-03-05T04:31:11.603Z,5.49
2023-03-05T04:32:08.625Z,7.04
2023-03-05T04:33:05.451Z,7.26
2023-03-05T04:34:02.280Z,5.14
2023-03-05T04:34:59.245Z,6.35
2023-03-05T04:35:57.449Z,5.54
2023-03-05T04:36:54.297Z,6.63
2023-03-05T04:37:51.086Z,6.64
2023-03-05T04:38:47.948Z,7.33
2023-03-05T04:39:44.805Z,6.28
2023-03-05T04:40:45.684Z,6.50
2023-03-05T04:41:42.524Z,6.46
2023-03-05T04:42:39.415Z,5.55
2023-03-05T04:43:38.498Z,7.09
2023-03-05T04:44:35.347Z,6.53
2023-03-05T04:45:35.426Z,7.06
2023-03-05T04:46:32.457Z,5.77
2023-03-05T04:47:29.355Z,6.89
2023-03-05T04:48:26.160Z,7.30
2023-03-05T04:49:22.882Z,7.47
2023-03-05T04:50:19.943Z,7.18
2023-03-05T04:51:16.897Z,6.83
2023-03-05T04:52:18.081Z,6.73
2023-03-05T04:53:14.979Z,7.53
2023-03-05T04:54:11.756Z,6.60
2023-03-05T04:55:09.535Z,6.13
2023-03-05T04:56:06.773Z,7.21
2023-03-05T04:57:03.864Z,7.04
2023-03-05T04:58:00.680Z,7.28
2023-03-05T04:58:57.456Z,4.64
2023-03-05T04:59:54.310Z,6.79
2023-03-05T05:00:51.568Z,6.98
2023-03-05T05:01:48.331Z,7.38
2023-03-05T05:02:48.138Z,7.55
2023-03-05T05:03:44.943Z,6.83
2023-03-05T05:04:45.071Z,6.14
2023-03-05T05:05:41.873Z,7.56
2023-03-05T05:06:38.706Z,7.38
2023-03-05T05:07:35.834Z,7.63
2023-03-05T05:08:32.604Z,6.51
2023-03-05T05:09:29.351Z,6.88
2023-03-05T05:10:27.078Z,6.50
2023-03-05T05:11:24.009Z,6.03
2023-03-05T05:12:20.781Z,7.42
2023-03-05T05:13:17.559Z,6.32
2023-03-05T05:14:14.406Z,7.23
2023-03-05T05:15:12.925Z,6.11
2023-03-05T05:16:10.115Z,6.61
2023-03-05T05:17:06.943Z,7.53
2023-03-05T05:18:03.880Z,6.34
2023-03-05T05:19:00.727Z,6.42
2023-03-05T05:19:57.694Z,7.56
2023-03-05T05:20:54.610Z,7.55
2023-03-05T05:21:51.472Z,7.49
2023-03-05T05:22:48.260Z,7.70
2023-03-05T05:23:45.229Z,6.53
2023-03-05T05:24:42.058Z,7.49
2023-03-05T05:25:39.087Z,7.66
2023-03-05T05:26:35.972Z,7.60
2023-03-05T05:27:33.602Z,6.96
2023-03-05T05:28:30.940Z,6.95
2023-03-05T05:29:27.799Z,6.28
2023-03-05T05:30:24.644Z,7.63
2023-03-05T05:31:21.576Z,5.95
2023-03-05T05:32:21.217Z,7.75
2023-03-05T05:33:17.970Z,3.67
2023-03-05T05:34:15.639Z,8.01
2023-03-05T05:35:12.538Z,6.79
2023-03-05T05:36:13.386Z,7.89
2023-03-05T05:37:10.145Z,7.45
2023-03-05T05:38:06.972Z,5.41
2023-03-05T05:39:04.505Z,6.68
2023-03-05T05:40:01.460Z,6.68
2023-03-05T05:41:14.423Z,7.75
2023-03-05T05:42:11.252Z,4.35
2023-03-05T05:43:08.799Z,5.72
2023-03-05T05:44:05.588Z,3.87
2023-03-05T05:45:03.216Z,6.39
2023-03-05T05:46:05.885Z,7.05
2023-03-05T05:47:02.812Z,7.63
2023-03-05T05:47:59.661Z,6.73
2023-03-05T05:48:56.519Z,7.31
2023-03-05T05:49:53.413Z,6.04
2023-03-05T05:50:50.194Z,7.24
2023-03-05T05:51:47.004Z,6.75
2023-03-05T05:52:43.854Z,7.52
2023-03-05T05:53:42.247Z,7.11
2023-03-05T05:54:39.282Z,7.33
2023-03-05T05:55:36.062Z,6.05
2023-03-05T05:56:34.031Z,7.59
2023-03-05T05:57:30.802Z,7.69
2023-03-05T05:58:27.650Z,7.52
2023-03-05T05:59:25.071Z,7.72
2023-03-05T06:00:22.804Z,7.78
2023-03-05T06:01:23.768Z,7.71
2023-03-05T06:02:20.530Z,7.31
2023-03-05T06:03:17.530Z,7.40
2023-03-05T06:04:14.363Z,7.20
2023-03-05T06:05:14.922Z,6.75
2023-03-05T06:06:14.044Z,7.34
2023-03-05T06:07:10.775Z,7.23
2023-03-05T06:08:07.674Z,7.50
2023-03-05T06:09:04.958Z,7.45
2023-03-05T06:10:01.769Z,6.75
2023-03-05T06:10:58.543Z,7.23
2023-03-05T06:11:55.888Z,6.56
2023-03-05T06:12:52.669Z,7.51
2023-03-05T06:13:50.640Z,6.45
2023-03-05T06:14:47.538Z,5.95
2023-03-05T06:15:44.285Z,7.69
2023-03-05T06:16:42.140Z,7.63
2023-03-05T06:17:39.195Z,7.74
2023-03-05T06:18:36.167Z,7.65
2023-03-05T06:19:32.988Z,7.44
2023-03-05T06:20:29.852Z,6.70
2023-03-05T06:21:28.665Z,7.56
2023-03-05T06:22:25.658Z,6.62
2023-03-05T06:23:22.791Z,7.56
2023-03-05T06:24:19.733Z,7.65
2023-03-05T06:25:16.934Z,7.16
2023-03-05T06:26:16.773Z,7.86
2023-03-05T06:27:16.386Z,6.72
2023-03-05T06:28:13.240Z,7.90
2023-03-05T06:29:13.647Z,7.24
2023-03-05T06:30:17.817Z,7.49
2023-03-05T06:31:23.369Z,7.53
2023-03-05T06:32:20.731Z,7.23
2023-03-05T06:33:20.595Z,6.43
2023-03-05T06:34:17.371Z,7.45
2023-03-05T06:35:15.345Z,7.28
2023-03-05T06:36:15.612Z,7.19
2023-03-05T06:37:12.458Z,6.20
2023-03-05T06:38:09.432Z,5.56
2023-03-05T06:39:07.246Z,6.52
2023-03-05T06:40:07.778Z,6.99
2023-03-05T06:41:09.243Z,7.30
2023-03-05T06:42:06.372Z,5.89
2023-03-05T06:43:05.929Z,7.35
2023-03-05T06:44:03.859Z,7.30
2023-03-05T06:45:00.759Z,7.41
2023-03-05T06:46:23.845Z,6.24
2023-03-05T06:47:20.776Z,6.55
2023-03-05T06:48:17.656Z,7.66
2023-03-05T06:49:17.489Z,4.91
2023-03-05T06:50:17.528Z,6.99
2023-03-05T06:51:27.001Z,6.49
2023-03-05T06:52:26.359Z,7.90
2023-03-05T06:53:25.015Z,5.40
2023-03-05T06:54:22.720Z,4.00
2023-03-05T06:55:22.468Z,4.91
2023-03-05T06:56:23.182Z,6.26
2023-03-05T06:57:23.612Z,7.46
2023-03-05T06:58:24.373Z,6.76
2023-03-05T06:59:25.840Z,5.49
2023-03-05T07:00:23.008Z,7.60
2023-03-05T07:01:24.322Z,7.84
2023-03-05T07:02:28.675Z,6.61
2023-03-05T07:03:25.597Z,6.75
2023-03-05T07:04:24.405Z,7.69
2023-03-05T07:05:21.371Z,6.94
2023-03-05T07:06:21.797Z,7.94
2023-03-05T07:07:20.360Z,7.96
2023-03-05T07:08:17.874Z,5.84
2023-03-05T07:09:17.092Z,8.17
2023-03-05T07:10:13.886Z,7.73
2023-03-05T07:11:17.142Z,4.98
2023-03-05T07:12:13.909Z,7.87
2023-03-05T07:13:10.932Z,8.00
2023-03-05T07:14:21.903Z,8.14
2023-03-05T07:15:21.590Z,8.00
2023-03-05T07:16:30.252Z,6.25
2023-03-05T07:17:27.925Z,5.85
2023-03-05T07:18:27.267Z,8.30
2023-03-05T07:19:26.406Z,8.49
2023-03-05T07:20:23.398Z,7.97
2023-03-05T07:21:25.690Z,8.09
2023-03-05T07:22:22.478Z,8.58
2023-03-05T07:23:19.328Z,7.07
2023-03-05T07:24:16.166Z,8.72
2023-03-05T07:25:13.479Z,8.34
2023-03-05T07:26:11.732Z,8.45
2023-03-05T07:27:08.527Z,8.07
2023-03-05T07:28:07.118Z,7.34
2023-03-05T07:29:04.395Z,8.81
2023-03-05T07:30:01.315Z,8.63
2023-03-05T07:31:00.490Z,8.66
2023-03-05T07:31:57.402Z,8.13
2023-03-05T07:32:54.200Z,8.54
2023-03-05T07:33:51.114Z,7.34
2023-03-05T07:34:47.907Z,7.60
2023-03-05T07:35:44.693Z,8.59
2023-03-05T07:36:43.126Z,7.02
2023-03-05T07:37:40.542Z,7.99
2023-03-05T07:38:37.953Z,8.72
2023-03-05T07:39:34.844Z,8.37
2023-03-05T07:40:31.605Z,8.31
2023-03-05T07:41:28.410Z,8.13
2023-03-05T07:42:25.509Z,8.95
2023-03-05T07:43:22.466Z,9.05
2023-03-05T07:44:20.336Z,8.93
2023-03-05T07:45:17.194Z,8.97
2023-03-05T07:46:16.649Z,8.27
2023-03-05T07:47:13.550Z,8.23
2023-03-05T07:48:17.631Z,7.83
2023-03-05T07:49:17.182Z,8.50
2023-03-05T07:50:13.997Z,8.82
2023-03-05T07:51:15.848Z,8.38
2023-03-05T07:52:12.692Z,8.34
2023-03-05T07:53:09.769Z,8.86
2023-03-05T07:54:08.964Z,8.40
2023-03-05T07:55:05.992Z,7.74
2023-03-05T07:56:03.096Z,8.32
2023-03-05T07:56:59.836Z,8.46
2023-03-05T07:57:56.938Z,7.44
2023-03-05T07:58:53.706Z,8.39
2023-03-05T07:59:50.628Z,8.77
2023-03-05T08:00:47.527Z,7.76
2023-03-05T08:01:44.323Z,8.74
2023-03-05T08:02:41.269Z,9.12
2023-03-05T08:03:38.128Z,8.56
2023-03-05T08:04:34.892Z,7.10
2023-03-05T08:05:31.861Z,8.76
2023-03-05T08:06:29.065Z,7.66
2023-03-05T08:07:25.823Z,8.81
2023-03-05T08:08:22.765Z,8.76
2023-03-05T08:09:20.878Z,7.54
2023-03-05T08:10:17.876Z,8.70
2023-03-05T08:11:16.568Z,8.59
2023-03-05T08:12:13.400Z,9.04
2023-03-05T08:13:10.628Z,9.11
2023-03-05T08:14:07.773Z,8.72
2023-03-05T08:15:05.138Z,8.71
2023-03-05T08:16:11.191Z,9.10
2023-03-05T08:17:08.724Z,8.34
2023-03-05T08:18:08.193Z,8.01
2023-03-05T08:19:06.037Z,9.06
2023-03-05T08:20:05.540Z,9.28
2023-03-05T08:21:02.422Z,9.38
2023-03-05T08:21:59.241Z,9.37
2023-03-05T08:22:56.036Z,9.40
2023-03-05T08:23:53.234Z,8.24
2023-03-05T08:24:50.621Z,9.34
2023-03-05T08:25:47.437Z,9.32
2023-03-05T08:26:44.372Z,7.85
2023-03-05T08:27:43.646Z,8.37
2023-03-05T08:28:40.413Z,9.19
2023-03-05T08:29:37.330Z,9.25
2023-03-05T08:30:34.102Z,9.27
2023-03-05T08:31:32.350Z,9.07
2023-03-05T08:32:29.578Z,6.09
2023-03-05T08:33:26.387Z,9.00
2023-03-05T08:34:23.473Z,8.54
2023-03-05T08:35:21.422Z,8.92
2023-03-05T08:36:18.305Z,5.66
2023-03-05T08:37:15.150Z,8.68
2023-03-05T08:38:12.124Z,7.78
2023-03-05T08:39:09.973Z,8.94
2023-03-05T08:40:07.573Z,9.43
2023-03-05T08:41:05.575Z,9.01
2023-03-05T08:42:03.228Z,8.90
2023-03-05T08:43:00.154Z,9.03
2023-03-05T08:43:59.051Z,7.47
2023-03-05T08:45:35.609Z,9.26
2023-03-05T08:46:41.621Z,5.58
2023-03-05T08:47:38.686Z,6.32
2023-03-05T08:48:35.540Z,7.78
2023-03-05T08:49:32.301Z,9.00
2023-03-05T08:50:29.137Z,8.59
2023-03-05T08:51:27.204Z,9.12
2023-03-05T08:52:24.637Z,8.59
2023-03-05T08:53:21.457Z,7.76
2023-03-05T08:54:18.263Z,8.82
2023-03-05T08:55:16.295Z,6.89
2023-03-05T08:56:14.610Z,8.11
2023-03-05T08:57:11.491Z,8.99
2023-03-05T08:58:08.603Z,9.02
2023-03-05T08:59:10.435Z,9.30
2023-03-05T09:00:10.317Z,9.19
2023-03-05T09:01:09.709Z,9.23
2023-03-05T09:02:07.476Z,8.60
2023-03-05T09:03:04.644Z,6.97
2023-03-05T09:04:01.671Z,9.67
2023-03-05T09:04:58.561Z,9.06
2023-03-05T09:06:00.946Z,9.39
2023-03-05T09:07:55.078Z,10.14
2023-03-05T09:08:51.957Z,9.73
2023-03-05T09:09:48.805Z,7.90
2023-03-05T09:10:46.726Z,8.89
2023-03-05T09:11:43.508Z,10.21
2023-03-05T09:12:41.349Z,10.04
2023-03-05T09:13:39.010Z,8.86
2023-03-05T09:14:35.890Z,9.15
2023-03-05T09:15:32.716Z,10.02
2023-03-05T09:16:29.760Z,9.53
2023-03-05T09:17:26.661Z,9.37
2023-03-05T09:18:23.848Z,9.93
2023-03-05T09:19:21.080Z,10.12
2023-03-05T09:20:20.509Z,9.80
2023-03-05T09:21:18.254Z,10.12
2023-03-05T09:22:18.136Z,10.06
2023-03-05T09:23:15.088Z,10.16
2023-03-05T09:24:13.349Z,10.32
2023-03-05T09:25:12.294Z,9.80
2023-03-05T09:26:16.454Z,9.33
2023-03-05T09:27:13.276Z,9.65
2023-03-05T09:28:10.643Z,10.73
2023-03-05T09:29:09.054Z,10.92
2023-03-05T09:30:09.804Z,10.79
2023-03-05T09:31:08.981Z,9.75
2023-03-05T09:32:06.603Z,10.68
2023-03-05T09:33:07.399Z,9.97
2023-03-05T09:34:12.378Z,9.75
2023-03-05T09:35:30.797Z,7.64
2023-03-05T09:36:30.568Z,6.11
2023-03-05T09:37:28.484Z,8.49
2023-03-05T09:38:25.376Z,8.76
2023-03-05T09:39:24.868Z,10.47
2023-03-05T09:40:23.362Z,10.26
2023-03-05T09:41:37.300Z,10.42
2023-03-05T09:43:13.320Z,9.93
2023-03-05T09:44:22.125Z,10.47
2023-03-05T09:45:43.070Z,8.89
2023-03-05T09:46:44.054Z,10.66
2023-03-05T09:47:57.072Z,10.60
2023-03-05T09:49:30.372Z,8.59
2023-03-05T09:50:39.390Z,10.11
2023-03-05T09:51:42.983Z,9.85
2023-03-05T09:53:06.338Z,10.72
2023-03-05T09:54:15.071Z,10.46
2023-03-05T09:55:26.173Z,10.63
2023-03-05T09:56:56.733Z,10.80
2023-03-05T09:58:02.151Z,10.17
2023-03-05T09:59:20.986Z,9.05
2023-03-05T10:00:39.816Z,10.88
2023-03-05T10:01:42.505Z,9.28
2023-03-05T10:02:55.788Z,10.73
2023-03-05T10:04:33.997Z,11.04
2023-03-05T10:06:02.575Z,11.28
2023-03-05T10:07:35.628Z,10.11
2023-03-05T10:09:06.934Z,10.49
2023-03-05T10:10:24.755Z,10.81
2023-03-05T10:11:36.985Z,10.54
2023-03-05T10:12:46.366Z,10.25
2023-03-05T10:13:46.210Z,9.90
2023-03-05T10:14:43.324Z,10.32
2023-03-05T10:15:54.080Z,10.44
2023-03-05T10:17:41.999Z,11.26
2023-03-05T10:18:46.990Z,11.30
2023-03-05T10:20:19.025Z,11.14
2023-03-05T10:21:30.712Z,10.84
2023-03-05T10:23:08.650Z,10.55
2023-03-05T10:24:42.680Z,10.50
2023-03-05T10:26:07.457Z,10.85
2023-03-05T10:27:21.748Z,10.70
2023-03-05T10:28:29.005Z,9.98
2023-03-05T10:29:59.152Z,10.29
2023-03-05T10:33:25.024Z,10.99
2023-03-05T10:34:07.074Z,9.80
2023-03-05T10:35:43.730Z,11.07
2023-03-05T10:37:16.120Z,10.63
2023-03-05T10:38:20.319Z,11.29
2023-03-05T10:39:44.519Z,11.32
2023-03-05T10:41:24.136Z,9.35
2023-03-05T10:42:48.812Z,10.86
2023-03-05T10:44:23.307Z,11.12
2023-03-05T10:45:29.483Z,10.95
2023-03-05T10:46:34.498Z,10.97
2023-03-05T10:47:39.887Z,11.08
2023-03-05T10:48:59.880Z,10.93
2023-03-05T10:50:02.018Z,10.97
2023-03-05T10:51:21.387Z,10.65
2023-03-05T10:52:43.336Z,10.43
2023-03-05T10:53:53.446Z,10.17
2023-03-05T10:54:51.701Z,8.98
2023-03-05T10:55:53.069Z,9.99
2023-03-05T10:56:49.898Z,10.20
2023-03-05T10:57:49.848Z,9.48
2023-03-05T10:58:53.910Z,8.89
2023-03-05T10:59:55.659Z,9.46
2023-03-05T11:01:05.894Z,10.51
2023-03-05T11:02:09.868Z,10.56
2023-03-05T11:03:12.681Z,10.20
2023-03-05T11:04:35.954Z,9.36
2023-03-05T11:05:40.138Z,10.78
2023-03-05T11:06:43.901Z,9.96
2023-03-05T11:07:43.302Z,10.76
2023-03-05T11:08:42.779Z,10.19
2023-03-05T11:09:39.588Z,9.57
2023-03-05T11:10:36.435Z,9.91
2023-03-05T11:11:33.536Z,10.07
2023-03-05T11:12:45.093Z,10.93
2023-03-05T11:14:07.919Z,11.16
2023-03-05T11:15:10.453Z,11.21
2023-03-05T11:16:16.054Z,9.77
2023-03-05T11:17:36.438Z,10.98
2023-03-05T11:18:37.789Z,9.83
2023-03-05T11:19:37.320Z,10.01
2023-03-05T11:20:47.404Z,10.14
2023-03-05T11:21:47.099Z,10.84
2023-03-05T11:23:05.445Z,10.44
2023-03-05T11:24:14.483Z,11.00
2023-03-05T11:25:11.259Z,10.57
2023-03-05T11:26:23.122Z,10.18
2023-03-05T11:27:35.488Z,9.03
2023-03-05T11:28:55.872Z,9.03
2023-03-05T11:29:53.089Z,10.79
2023-03-05T11:31:27.703Z,10.11
2023-03-05T11:32:29.881Z,10.83
2023-03-05T11:33:33.178Z,10.16
2023-03-05T11:34:37.114Z,10.47
2023-03-05T11:35:42.324Z,10.70
2023-03-05T11:37:03.950Z,11.07
2023-03-05T11:38:26.959Z,9.79
2023-03-05T11:39:48.694Z,10.65
2023-03-05T11:40:49.619Z,6.67
2023-03-05T11:42:25.290Z,11.22
2023-03-05T11:43:32.731Z,10.08
2023-03-05T11:44:52.708Z,8.08
2023-03-05T11:46:02.824Z,7.85
2023-03-05T11:47:22.735Z,11.33
2023-03-05T11:48:39.033Z,9.66
2023-03-05T11:51:05.272Z,7.63
2023-03-05T11:52:23.644Z,11.09
2023-03-05T11:53:33.103Z,9.50
2023-03-05T11:54:45.366Z,9.49
2023-03-05T11:56:03.811Z,10.78
2023-03-05T11:57:03.895Z,10.39
2023-03-05T11:58:33.736Z,11.12
2023-03-05T11:59:39.690Z,9.76
2023-03-05T12:00:48.703Z,10.35
2023-03-05T12:02:02.263Z,9.56
2023-03-05T12:03:07.614Z,9.91
2023-03-05T12:04:05.259Z,9.68
2023-03-05T12:05:05.344Z,10.42
2023-03-05T12:06:19.927Z,10.92
2023-03-05T12:07:41.472Z,7.44
2023-03-05T12:08:45.001Z,9.66
2023-03-05T12:09:47.743Z,11.11
2023-03-05T12:10:44.651Z,11.07
2023-03-05T12:11:42.244Z,9.07
2023-03-05T12:12:45.116Z,11.07
2023-03-05T12:13:48.901Z,10.66
2023-03-05T12:14:58.302Z,11.02
2023-03-05T12:16:01.138Z,11.24
2023-03-05T12:17:07.710Z,10.98
2023-03-05T12:18:13.163Z,11.04
2023-03-05T12:19:32.998Z,10.90
2023-03-05T12:20:51.478Z,10.82
2023-03-05T12:21:58.702Z,10.62
2023-03-05T12:22:57.990Z,11.02
2023-03-05T12:24:01.473Z,10.08
2023-03-05T12:25:17.472Z,9.61
2023-03-05T12:26:14.586Z,11.11
2023-03-05T12:27:15.330Z,10.99
2023-03-05T12:28:35.045Z,11.11
2023-03-05T12:30:01.585Z,11.43
2023-03-05T12:31:04.726Z,10.88
2023-03-05T12:32:02.784Z,11.32
2023-03-05T12:33:00.272Z,11.42
2023-03-05T12:33:57.043Z,11.09
2023-03-05T12:35:01.248Z,10.04
2023-03-05T12:36:36.797Z,11.17
2023-03-05T12:37:33.537Z,11.33
2023-03-05T12:38:36.014Z,11.64
2023-03-05T12:39:50.980Z,11.05
2023-03-05T12:40:47.924Z,11.19
2023-03-05T12:41:44.848Z,9.83
2023-03-05T12:43:00.735Z,11.22
2023-03-05T12:44:06.345Z,11.70
2023-03-05T12:45:16.128Z,11.88
2023-03-05T12:46:36.024Z,11.08
2023-03-05T12:47:33.121Z,11.33
2023-03-05T12:48:29.955Z,11.82
2023-03-05T12:49:28.399Z,11.80
2023-03-05T12:50:28.058Z,11.97
2023-03-05T12:51:44.147Z,11.85
2023-03-05T12:52:46.158Z,11.89
2023-03-05T12:53:43.130Z,11.66
2023-03-05T12:55:14.589Z,10.53
2023-03-05T12:56:26.741Z,11.78
2023-03-05T12:59:19.567Z,10.41
2023-03-05T13:00:25.600Z,8.51
2023-03-05T13:01:34.460Z,11.67
2023-03-05T13:02:39.122Z,11.55
2023-03-05T13:03:59.788Z,10.59
2023-03-05T13:05:52.292Z,11.53
2023-03-05T13:07:02.890Z,11.59
2023-03-05T13:08:44.554Z,10.09
2023-03-05T13:09:51.142Z,11.09
2023-03-05T13:11:03.251Z,11.57
2023-03-05T13:12:02.624Z,10.62
2023-03-05T13:13:02.253Z,10.49
2023-03-05T13:14:01.628Z,11.06
2023-03-05T13:15:09.484Z,10.91
2023-03-05T13:16:37.633Z,10.56
2023-03-05T13:17:44.493Z,11.19
2023-03-05T13:18:41.928Z,11.02
2023-03-05T13:19:48.180Z,9.99
2023-03-05T13:21:13.970Z,8.27
2023-03-05T13:22:24.796Z,11.14
2023-03-05T13:23:27.963Z,7.35
2023-03-05T13:24:27.088Z,11.26
2023-03-05T13:25:24.051Z,10.42
2023-03-05T13:26:27.488Z,11.07
2023-03-05T13:29:33.361Z,8.52
2023-03-05T13:30:39.887Z,9.68
2023-03-05T13:31:48.178Z,9.44
2023-03-05T13:32:50.059Z,11.02
2023-03-05T13:33:57.666Z,10.52
2023-03-05T13:35:01.458Z,11.18
2023-03-05T13:36:04.680Z,9.90
2023-03-05T13:37:07.604Z,10.47
2023-03-05T13:38:04.532Z,11.27
2023-03-05T13:39:02.392Z,10.92
2023-03-05T13:40:07.361Z,8.53
2023-03-05T13:41:18.180Z,10.27
2023-03-05T13:42:22.912Z,10.23
2023-03-05T13:43:20.814Z,11.20